Time;durP1;ratioP1;P1;durP2;ratioP2;P2;SDS_P1;SDS_P2;PMS_P1;PMS_P2;Temp;Humidity;BMP_temperature;BMP_pressure;BME280_temperature;BME280_humidity;BME280_pressure;Samples;Min_cycle;Max_cycle;Signal;HPM_P1;HPM_P2
2021/11/28 00:00:48;;;;;;;;;;;;;;;13.48;71.75;99136.13;1049206;28;849;-60
2021/11/28 00:01:39;;;;;;;;;;;;;;;13.48;71.55;99133.47;1049249;28;611;-60
2021/11/28 00:02:31;;;;;;;;;;;;;;;13.48;72.22;99141.50;1045329;28;645;-60
2021/11/28 00:03:22;;;;;;;;;;;;;;;13.48;72.06;99146.84;1046682;28;673;-60
2021/11/28 00:04:14;;;;;;;;;;;;;;;13.49;72.05;99151.19;1049940;28;745;-60
2021/11/28 00:05:04;;;;;;;;;;;;;;;13.48;71.65;99149.53;1049678;28;786;-60
2021/11/28 00:05:59;;;;;;;;;;;;;;;13.48;72.18;99146.84;1045468;28;697;-60
2021/11/28 00:06:58;;;;;;;;;;;;;;;13.49;72.15;99151.19;1046553;28;959;-60
2021/11/28 00:09:16;;;;;;;;;;;;;;;13.48;71.32;99156.72;1037873;28;1982;-60
2021/11/28 00:13:05;;;;;;;;;;;;;;;13.48;71.42;99154.03;1041690;28;845;-60
2021/11/28 00:14:57;;;;;;;;;;;;;;;13.47;71.49;99147.00;1042192;28;657;-60
2021/11/28 00:15:47;;;;;;;;;;;;;;;13.46;71.54;99154.19;1041561;28;694;-59
2021/11/28 00:16:38;;;;;;;;;;;;;;;13.46;72.19;99158.69;1042062;28;779;-60
2021/11/28 00:17:28;;;;;;;;;;;;;;;13.47;71.91;99153.19;1041995;28;857;-60
2021/11/28 00:18:18;;;;;;;;;;;;;;;13.46;71.97;99164.06;1044522;28;1884;-60
2021/11/28 00:19:09;;;;;;;;;;;;;;;13.46;71.85;99164.06;1045121;28;1993;-60
2021/11/28 00:19:59;;;;;;;;;;;;;;;13.47;71.41;99155.03;1044371;28;685;-60
2021/11/28 00:20:50;;;;;;;;;;;;;;;13.46;71.97;99156.88;1041246;28;989;-60
2021/11/28 00:21:40;;;;;;;;;;;;;;;13.46;71.92;99154.19;1038294;28;780;-59
2021/11/28 00:22:30;;;;;;;;;;;;;;;13.45;72.29;99163.22;1038379;28;857;-60
2021/11/28 00:23:21;;;;;;;;;;;;;;;13.46;71.85;99153.34;1042111;28;708;-60
2021/11/28 00:24:11;;;;;;;;;;;;;;;13.45;72.35;99152.50;1041528;28;508;-60
2021/11/28 00:25:02;;;;;;;;;;;;;;;13.45;71.58;99147.16;1041034;28;686;-60
2021/11/28 00:25:52;;;;;;;;;;;;;;;13.45;71.53;99149.00;1041079;28;899;-60
2021/11/28 00:26:43;;;;;;;;;;;;;;;13.45;71.63;99149.00;1040989;28;716;-60
2021/11/28 00:27:34;;;;;;;;;;;;;;;13.44;72.35;99160.69;1041091;28;762;-61
2021/11/28 00:28:24;;;;;;;;;;;;;;;13.44;71.74;99164.22;1040864;28;1689;-60
2021/11/28 00:29:15;;;;;;;;;;;;;;;13.45;72.18;99159.69;1044718;28;1890;-60
2021/11/28 00:30:05;;;;;;;;;;;;;;;13.45;72.34;99167.72;1045237;28;975;-60
2021/11/28 00:30:56;;;;;;;;;;;;;;;13.44;72.42;99166.88;1041114;28;616;-60
2021/11/28 00:31:46;;;;;;;;;;;;;;;13.46;71.79;99169.41;1041455;28;859;-61
2021/11/28 00:32:37;;;;;;;;;;;;;;;13.45;72.43;99165.88;1041406;28;771;-61
2021/11/28 00:33:28;;;;;;;;;;;;;;;13.43;71.48;99165.25;1041612;28;696;-61
2021/11/28 00:34:18;;;;;;;;;;;;;;;13.43;71.61;99162.56;1041496;28;853;-61
2021/11/28 00:35:09;;;;;;;;;;;;;;;13.43;71.48;99173.25;1041598;28;765;-60
2021/11/28 00:35:59;;;;;;;;;;;;;;;13.44;71.53;99166.88;1041383;28;734;-60
2021/11/28 00:36:50;;;;;;;;;;;;;;;13.45;71.54;99171.25;1041533;28;835;-60
2021/11/28 00:37:40;;;;;;;;;;;;;;;13.45;72.52;99173.06;1042410;28;1958;-60
2021/11/28 00:38:30;;;;;;;;;;;;;;;13.44;71.71;99172.25;1044340;28;846;-60
2021/11/28 00:39:21;;;;;;;;;;;;;;;13.44;71.72;99174.91;1045620;28;633;-60
2021/11/28 00:40:11;;;;;;;;;;;;;;;13.44;71.45;99174.06;1045531;28;940;-60
2021/11/28 00:41:02;;;;;;;;;;;;;;;13.45;71.79;99176.59;1045573;28;678;-60
2021/11/28 00:41:52;;;;;;;;;;;;;;;13.44;72.07;99177.59;1045204;28;689;-60
2021/11/28 00:42:42;;;;;;;;;;;;;;;13.43;72.37;99178.63;1045488;28;768;-60
2021/11/28 00:43:33;;;;;;;;;;;;;;;13.43;72.50;99180.44;1046215;28;607;-60
2021/11/28 00:44:23;;;;;;;;;;;;;;;13.41;72.42;99177.94;1045307;28;1496;-60
2021/11/28 00:45:14;;;;;;;;;;;;;;;13.42;72.06;99179.63;1045602;28;610;-60
2021/11/28 00:46:04;;;;;;;;;;;;;;;13.43;71.48;99180.44;1045452;28;614;-60
2021/11/28 00:46:55;;;;;;;;;;;;;;;13.43;72.13;99183.13;1042041;28;791;-60
2021/11/28 00:47:45;;;;;;;;;;;;;;;13.43;72.30;99175.94;1042998;28;1889;-60
2021/11/28 00:48:38;;;;;;;;;;;;;;;13.42;72.42;99179.63;1045384;28;847;-60
2021/11/28 00:49:29;;;;;;;;;;;;;;;13.43;72.18;99180.44;1045453;28;763;-60
2021/11/28 00:52:03;;;;;;;;;;;;;;;13.44;72.03;99184.78;1046126;28;676;-59
2021/11/28 00:52:54;;;;;;;;;;;;;;;13.43;71.70;99186.66;1045627;28;830;-60
2021/11/28 00:53:44;;;;;;;;;;;;;;;13.42;71.79;99184.97;1045504;28;779;-60
2021/11/28 00:54:35;;;;;;;;;;;;;;;13.43;71.55;99197.34;1044690;28;2134;-59
2021/11/28 00:55:25;;;;;;;;;;;;;;;13.42;72.48;99200.19;1045043;28;2244;-59
2021/11/28 00:56:17;;;;;;;;;;;;;;;13.41;71.56;99191.31;1045445;28;630;-59
2021/11/28 00:57:08;;;;;;;;;;;;;;;13.42;71.76;99195.66;1046105;28;898;-59
2021/11/28 00:57:58;;;;;;;;;;;;;;;13.42;71.49;99189.47;1049885;28;730;-60
2021/11/28 00:58:49;;;;;;;;;;;;;;;13.42;71.71;99190.31;1048910;28;795;-59
2021/11/28 00:59:39;;;;;;;;;;;;;;;13.43;71.63;99191.16;1045337;28;1105;-59
2021/11/28 01:00:29;;;;;;;;;;;;;;;13.40;72.48;99200.34;1046052;28;662;-59
2021/11/28 01:01:20;;;;;;;;;;;;;;;13.40;72.28;99194.97;1046069;28;825;-59
2021/11/28 01:02:10;;;;;;;;;;;;;;;13.41;72.13;99199.34;1046116;28;666;-59
2021/11/28 01:03:01;;;;;;;;;;;;;;;13.42;72.28;99205.53;1046068;28;701;-60
2021/11/28 01:03:51;;;;;;;;;;;;;;;13.40;71.58;99203.00;1046157;28;634;-60
2021/11/28 01:04:42;;;;;;;;;;;;;;;13.41;72.22;99209.19;1046004;28;812;-59
2021/11/28 01:05:32;;;;;;;;;;;;;;;13.40;72.00;99208.34;1046055;28;997;-60
2021/11/28 01:06:22;;;;;;;;;;;;;;;13.39;72.08;99209.34;1045958;28;667;-60
2021/11/28 01:07:13;;;;;;;;;;;;;;;13.40;71.79;99210.19;1048268;28;1234;-60
2021/11/28 01:08:03;;;;;;;;;;;;;;;13.40;72.19;99205.69;1048686;28;2000;-60
2021/11/28 01:08:54;;;;;;;;;;;;;;;13.38;71.81;99202.31;1049616;28;1973;-60
2021/11/28 01:09:44;;;;;;;;;;;;;;;13.39;72.23;99213.88;1045117;28;917;-60
2021/11/28 01:10:34;;;;;;;;;;;;;;;13.39;72.11;99212.03;1046281;28;685;-60
2021/11/28 01:11:25;;;;;;;;;;;;;;;13.40;72.52;99211.03;1050069;28;819;-61
2021/11/28 01:12:15;;;;;;;;;;;;;;;13.40;72.32;99221.75;1049695;28;864;-61
2021/11/28 01:13:06;;;;;;;;;;;;;;;13.39;71.60;99212.03;1049662;28;598;-61
2021/11/28 01:13:56;;;;;;;;;;;;;;;13.39;71.75;99214.72;1048841;28;854;-61
2021/11/28 01:14:47;;;;;;;;;;;;;;;13.37;71.90;99211.34;1049678;28;646;-61
2021/11/28 01:15:37;;;;;;;;;;;;;;;13.39;72.39;99209.34;1049570;28;808;-61
2021/11/28 01:16:27;;;;;;;;;;;;;;;13.37;72.46;99213.19;1049601;28;722;-60
2021/11/28 01:17:18;;;;;;;;;;;;;;;13.37;71.83;99208.66;1049695;28;741;-60
2021/11/28 01:18:08;;;;;;;;;;;;;;;13.37;72.58;99214.03;1045869;28;2117;-59
2021/11/28 01:18:59;;;;;;;;;;;;;;;13.38;71.67;99215.69;1045553;28;602;-60
2021/11/28 01:19:49;;;;;;;;;;;;;;;13.39;71.77;99221.91;1045190;28;957;-60
2021/11/28 01:20:39;;;;;;;;;;;;;;;13.40;72.53;99218.22;1045972;28;822;-59
2021/11/28 01:21:30;;;;;;;;;;;;;;;13.40;71.54;99218.22;1044804;28;732;-60
2021/11/28 01:22:20;;;;;;;;;;;;;;;13.38;72.64;99218.38;1046006;28;837;-60
2021/11/28 01:23:11;;;;;;;;;;;;;;;13.37;72.60;99216.69;1044768;28;802;-59
2021/11/28 01:24:01;;;;;;;;;;;;;;;13.37;71.81;99223.88;1046003;28;845;-60
2021/11/28 01:24:52;;;;;;;;;;;;;;;13.36;71.55;99217.69;1046084;28;626;-59
2021/11/28 01:25:42;;;;;;;;;;;;;;;13.36;72.39;99216.84;1044952;28;813;-59
2021/11/28 01:26:32;;;;;;;;;;;;;;;13.36;72.41;99228.41;1046050;28;901;-60
2021/11/28 01:27:23;;;;;;;;;;;;;;;13.36;72.09;99227.56;1044839;28;748;-59
2021/11/28 01:28:13;;;;;;;;;;;;;;;13.37;71.91;99223.88;1049185;28;2011;-59
2021/11/28 01:29:04;;;;;;;;;;;;;;;13.36;72.14;99220.38;1049512;28;1902;-60
2021/11/28 01:29:54;;;;;;;;;;;;;;;13.37;72.60;99223.88;1049538;28;767;-60
2021/11/28 01:30:44;;;;;;;;;;;;;;;13.37;71.54;99224.72;1049602;28;790;-59
2021/11/28 01:31:35;;;;;;;;;;;;;;;13.37;71.80;99223.88;1049526;28;692;-60
2021/11/28 01:32:25;;;;;;;;;;;;;;;13.36;71.99;99223.03;1049451;28;960;-60
2021/11/28 01:33:16;;;;;;;;;;;;;;;13.36;72.04;99231.06;1049500;28;1455;-60
2021/11/28 01:34:07;;;;;;;;;;;;;;;13.37;71.81;99229.22;1050175;28;747;-60
2021/11/28 01:34:58;;;;;;;;;;;;;;;13.35;72.53;99226.72;1049536;28;693;-60
2021/11/28 01:35:48;;;;;;;;;;;;;;;13.35;71.58;99231.22;1049682;28;721;-60
2021/11/28 01:36:39;;;;;;;;;;;;;;;13.35;72.38;99229.38;1049348;28;761;-60
2021/11/28 01:37:30;;;;;;;;;;;;;;;13.36;72.43;99239.09;1049562;28;739;-60
2021/11/28 01:38:20;;;;;;;;;;;;;;;13.35;71.96;99237.41;1045969;28;820;-60
2021/11/28 01:39:11;;;;;;;;;;;;;;;13.35;71.47;99250.78;1045884;28;618;-60
2021/11/28 01:40:01;;;;;;;;;;;;;;;13.35;72.35;99242.75;1044951;28;709;-60
2021/11/28 01:40:51;;;;;;;;;;;;;;;13.35;71.84;99236.56;1045914;28;842;-59
2021/11/28 01:41:42;;;;;;;;;;;;;;;13.34;72.53;99243.75;1045915;28;795;-58
2021/11/28 01:42:32;;;;;;;;;;;;;;;13.35;72.09;99237.41;1045915;28;789;-59
2021/11/28 01:43:23;;;;;;;;;;;;;;;13.34;72.50;99230.38;1046022;28;719;-58
2021/11/28 01:44:13;;;;;;;;;;;;;;;13.35;72.30;99244.59;1045775;28;1006;-59
2021/11/28 01:45:04;;;;;;;;;;;;;;;13.33;71.49;99244.75;1045879;28;904;-59
2021/11/28 01:45:54;;;;;;;;;;;;;;;13.33;71.47;99236.72;1045837;28;673;-59
2021/11/28 01:46:45;;;;;;;;;;;;;;;13.33;72.29;99244.75;1049712;28;1649;-59
2021/11/28 01:47:35;;;;;;;;;;;;;;;13.32;72.22;99245.75;1049533;28;715;-59
2021/11/28 01:48:25;;;;;;;;;;;;;;;13.33;72.03;99249.25;1048151;28;1887;-59
2021/11/28 01:49:16;;;;;;;;;;;;;;;13.32;72.02;99248.41;1049437;28;1898;-59
2021/11/28 01:50:06;;;;;;;;;;;;;;;13.33;72.45;99249.25;1049260;28;1995;-59
2021/11/28 01:51:02;;;;;;;;;;;;;;;13.32;72.24;99242.22;1049509;28;622;-59
2021/11/28 01:51:52;;;;;;;;;;;;;;;13.33;71.65;99241.25;1049489;28;756;-59
2021/11/28 01:52:42;;;;;;;;;;;;;;;13.32;71.47;99240.41;1049148;28;731;-59
2021/11/28 01:53:33;;;;;;;;;;;;;;;13.32;71.50;99247.59;1049353;28;1020;-59
2021/11/28 01:54:23;;;;;;;;;;;;;;;13.31;72.47;99246.75;1049918;28;965;-59
2021/11/28 01:55:14;;;;;;;;;;;;;;;13.33;72.27;99251.94;1049378;28;985;-59
2021/11/28 01:56:04;;;;;;;;;;;;;;;13.33;72.09;99254.63;1049424;28;662;-59
2021/11/28 01:56:55;;;;;;;;;;;;;;;13.32;71.63;99256.44;1049457;28;693;-59
2021/11/28 01:57:45;;;;;;;;;;;;;;;13.31;72.25;99260.13;1049543;28;842;-59
2021/11/28 01:58:36;;;;;;;;;;;;;;;13.31;71.96;99260.13;1045724;28;1203;-58
2021/11/28 01:59:26;;;;;;;;;;;;;;;13.31;72.46;99262.78;1045738;28;1038;-59
2021/11/28 02:00:16;;;;;;;;;;;;;;;13.31;72.18;99256.59;1045932;28;626;-59
2021/11/28 02:01:07;;;;;;;;;;;;;;;13.29;71.61;99259.44;1045864;28;672;-59
2021/11/28 02:01:57;;;;;;;;;;;;;;;13.29;71.47;99254.09;1045801;28;654;-59
2021/11/28 02:02:48;;;;;;;;;;;;;;;13.29;71.42;99259.44;1045811;28;700;-59
2021/11/28 02:03:40;;;;;;;;;;;;;;;13.28;72.60;99257.75;1045220;28;796;-59
2021/11/28 02:04:30;;;;;;;;;;;;;;;13.28;71.88;99255.06;1045250;28;820;-58
2021/11/28 02:05:21;;;;;;;;;;;;;;;13.29;72.33;99259.44;1045891;28;651;-59
2021/11/28 02:06:11;;;;;;;;;;;;;;;13.29;71.97;99264.78;1045265;28;786;-58
2021/11/28 02:07:03;;;;;;;;;;;;;;;13.29;71.55;99270.13;1045652;28;1121;-58
2021/11/28 02:07:53;;;;;;;;;;;;;;;13.30;71.91;99271.81;1045814;28;1924;-59
2021/11/28 02:08:44;;;;;;;;;;;;;;;13.30;72.17;99263.78;1049454;28;630;-59
2021/11/28 02:09:34;;;;;;;;;;;;;;;13.28;72.51;99263.09;1049323;28;673;-59
2021/11/28 02:10:25;;;;;;;;;;;;;;;13.30;71.51;99262.94;1049356;28;719;-58
2021/11/28 02:11:15;;;;;;;;;;;;;;;13.30;71.91;99266.47;1049882;28;788;-58
2021/11/28 02:12:05;;;;;;;;;;;;;;;13.29;71.98;99269.28;1049357;28;851;-57
2021/11/28 02:12:56;;;;;;;;;;;;;;;13.27;71.78;99269.44;1049480;28;654;-58
2021/11/28 02:13:46;;;;;;;;;;;;;;;13.26;72.08;99269.59;1048736;28;773;-60
2021/11/28 02:14:37;;;;;;;;;;;;;;;13.26;72.53;99262.41;1048808;28;890;-60
2021/11/28 02:15:27;;;;;;;;;;;;;;;13.29;71.75;99272.81;1049427;28;791;-60
2021/11/28 02:16:18;;;;;;;;;;;;;;;13.28;72.27;99268.44;1049298;28;871;-60
2021/11/28 02:17:08;;;;;;;;;;;;;;;13.26;72.40;99270.44;1044667;28;748;-60
2021/11/28 02:17:59;;;;;;;;;;;;;;;13.28;71.93;99267.59;1045811;28;711;-60
2021/11/28 02:18:50;;;;;;;;;;;;;;;13.28;71.96;99268.44;1044712;28;814;-60
2021/11/28 02:19:41;;;;;;;;;;;;;;;13.27;72.37;99272.13;1045834;28;755;-60
2021/11/28 02:20:31;;;;;;;;;;;;;;;13.28;72.09;99260.44;1044546;28;850;-58
2021/11/28 02:21:21;;;;;;;;;;;;;;;13.29;71.53;99269.28;1045887;28;752;-60
2021/11/28 02:22:12;;;;;;;;;;;;;;;13.28;71.46;99265.78;1044752;28;716;-60
2021/11/28 02:23:02;;;;;;;;;;;;;;;13.27;71.85;99272.13;1045667;28;885;-60
2021/11/28 02:23:53;;;;;;;;;;;;;;;13.28;72.32;99273.81;1045733;28;689;-61
2021/11/28 02:24:43;;;;;;;;;;;;;;;13.29;71.84;99275.47;1044546;28;827;-61
2021/11/28 02:25:33;;;;;;;;;;;;;;;13.27;72.55;99276.63;1049657;28;1885;-61
2021/11/28 02:26:25;;;;;;;;;;;;;;;13.27;71.45;99274.78;1049455;28;704;-60
2021/11/28 02:27:15;;;;;;;;;;;;;;;13.27;72.07;99273.94;1048677;28;805;-60
2021/11/28 02:28:06;;;;;;;;;;;;;;;13.26;72.17;99274.94;1049483;28;681;-61
2021/11/28 02:28:56;;;;;;;;;;;;;;;13.26;71.95;99275.78;1049417;28;803;-60
2021/11/28 02:29:47;;;;;;;;;;;;;;;13.25;72.08;99268.78;1049363;28;659;-61
2021/11/28 02:30:37;;;;;;;;;;;;;;;13.26;71.75;99274.94;1049561;28;708;-61
2021/11/28 02:31:27;;;;;;;;;;;;;;;13.27;72.04;99280.16;1049371;28;777;-60
2021/11/28 02:32:19;;;;;;;;;;;;;;;13.27;71.72;99273.94;1049402;28;770;-60
2021/11/28 02:33:09;;;;;;;;;;;;;;;13.27;71.87;99280.16;1049283;28;837;-60
2021/11/28 02:34:00;;;;;;;;;;;;;;;13.26;71.75;99275.78;1048771;28;641;-60
2021/11/28 02:34:50;;;;;;;;;;;;;;;13.26;72.44;99275.78;1049321;28;873;-60
2021/11/28 02:35:40;;;;;;;;;;;;;;;13.25;72.41;99282.16;1049200;28;790;-60
2021/11/28 02:36:31;;;;;;;;;;;;;;;13.25;71.66;99275.97;1049424;28;724;-60
2021/11/28 02:37:21;;;;;;;;;;;;;;;13.25;72.50;99278.66;1049278;28;884;-60
2021/11/28 02:38:12;;;;;;;;;;;;;;;13.26;72.48;99285.66;1049333;28;637;-60
2021/11/28 02:39:02;;;;;;;;;;;;;;;13.25;72.02;99284.00;1049263;28;755;-60
2021/11/28 02:39:52;;;;;;;;;;;;;;;13.24;71.91;99288.50;1048745;28;673;-60
2021/11/28 02:40:43;;;;;;;;;;;;;;;13.25;71.64;99286.66;1049441;28;739;-60
2021/11/28 02:41:33;;;;;;;;;;;;;;;13.25;72.36;99289.34;1049187;28;759;-60
2021/11/28 02:42:25;;;;;;;;;;;;;;;13.25;72.44;99292.88;1049402;28;752;-60
2021/11/28 02:43:15;;;;;;;;;;;;;;;13.25;72.34;99295.53;1048872;28;720;-60
2021/11/28 02:44:05;;;;;;;;;;;;;;;13.24;72.03;99296.53;1045756;28;711;-59
2021/11/28 02:44:56;;;;;;;;;;;;;;;13.24;72.42;99296.53;1045349;28;689;-59
2021/11/28 02:45:46;;;;;;;;;;;;;;;13.24;72.36;99296.53;1045174;28;764;-60
2021/11/28 02:46:37;;;;;;;;;;;;;;;13.24;71.69;99293.00;1047917;28;1549;-60
2021/11/28 02:47:27;;;;;;;;;;;;;;;13.23;72.35;99297.53;1048718;28;731;-60
2021/11/28 02:48:18;;;;;;;;;;;;;;;13.23;71.66;99297.53;1048602;28;626;-60
2021/11/28 02:49:08;;;;;;;;;;;;;;;13.24;72.40;99293.00;1048795;28;1898;-59
2021/11/28 02:49:58;;;;;;;;;;;;;;;13.25;72.11;99294.69;1049930;28;818;-59
2021/11/28 02:50:49;;;;;;;;;;;;;;;13.23;71.45;99292.16;1048668;28;863;-59
2021/11/28 02:51:39;;;;;;;;;;;;;;;13.24;71.49;99296.53;1048979;28;782;-59
2021/11/28 02:52:30;;;;;;;;;;;;;;;13.25;71.83;99290.19;1049178;28;799;-59
2021/11/28 02:53:20;;;;;;;;;;;;;;;13.23;71.79;99297.53;1048717;28;690;-59
2021/11/28 02:54:10;;;;;;;;;;;;;;;13.23;72.39;99288.66;1045099;28;1151;-59
2021/11/28 02:55:01;;;;;;;;;;;;;;;13.23;71.74;99296.69;1045269;28;606;-59
2021/11/28 02:55:53;;;;;;;;;;;;;;;13.23;71.66;99291.34;1045650;28;874;-59
2021/11/28 02:56:44;;;;;;;;;;;;;;;13.24;71.52;99293.84;1044636;28;710;-59
2021/11/28 02:57:34;;;;;;;;;;;;;;;13.24;72.42;99293.00;1044696;28;735;-59
2021/11/28 02:58:25;;;;;;;;;;;;;;;13.22;71.88;99298.50;1044467;28;1192;-59
2021/11/28 02:59:15;;;;;;;;;;;;;;;13.23;72.16;99294.00;1044664;28;1485;-59
2021/11/28 03:00:05;;;;;;;;;;;;;;;13.23;71.37;99292.16;1044462;28;893;-59
2021/11/28 03:00:56;;;;;;;;;;;;;;;13.23;71.66;99294.00;1044577;28;717;-59
2021/11/28 03:01:46;;;;;;;;;;;;;;;13.22;71.81;99292.31;1045211;28;709;-59
2021/11/28 03:02:37;;;;;;;;;;;;;;;13.23;72.14;99302.03;1045053;28;707;-59
2021/11/28 03:03:28;;;;;;;;;;;;;;;13.23;71.30;99302.88;1048482;28;1961;-59
2021/11/28 03:04:18;;;;;;;;;;;;;;;13.22;71.59;99301.19;1049245;28;882;-59
2021/11/28 03:05:08;;;;;;;;;;;;;;;13.23;72.38;99294.00;1049292;28;636;-59
2021/11/28 03:05:59;;;;;;;;;;;;;;;13.22;72.42;99301.19;1049266;28;638;-59
2021/11/28 03:06:49;;;;;;;;;;;;;;;13.22;71.83;99295.00;1049425;28;784;-59
2021/11/28 03:07:40;;;;;;;;;;;;;;;13.22;72.18;99293.16;1049273;28;700;-59
2021/11/28 03:08:30;;;;;;;;;;;;;;;13.20;72.40;99293.31;1049060;28;787;-59
2021/11/28 03:09:21;;;;;;;;;;;;;;;13.22;72.28;99298.50;1049214;28;1898;-59
2021/11/28 03:10:11;;;;;;;;;;;;;;;13.23;72.09;99288.66;1049253;28;1187;-59
2021/11/28 03:11:02;;;;;;;;;;;;;;;13.23;72.15;99296.69;1049224;28;677;-59
2021/11/28 03:11:52;;;;;;;;;;;;;;;13.22;71.53;99298.50;1049386;28;653;-59
2021/11/28 03:12:42;;;;;;;;;;;;;;;13.22;72.21;99295.84;1049191;28;813;-59
2021/11/28 03:13:33;;;;;;;;;;;;;;;13.19;71.64;99297.00;1049092;28;1801;-59
2021/11/28 03:14:23;;;;;;;;;;;;;;;13.19;71.55;99286.28;1049280;28;1477;-59
2021/11/28 03:15:14;;;;;;;;;;;;;;;13.19;71.66;99288.13;1049223;28;803;-60
2021/11/28 03:16:04;;;;;;;;;;;;;;;13.19;71.88;99288.97;1049274;28;696;-60
2021/11/28 03:16:54;;;;;;;;;;;;;;;13.19;71.46;99290.78;1048613;28;784;-60
2021/11/28 03:17:45;;;;;;;;;;;;;;;13.19;71.72;99296.16;1048674;28;737;-59
2021/11/28 03:18:35;;;;;;;;;;;;;;;13.18;71.73;99297.13;1049182;28;767;-57
2021/11/28 03:19:26;;;;;;;;;;;;;;;13.19;72.12;99296.16;1049256;28;731;-59
2021/11/28 03:20:16;;;;;;;;;;;;;;;13.18;71.48;99294.47;1049295;28;756;-58
2021/11/28 03:21:07;;;;;;;;;;;;;;;13.19;72.27;99293.47;1049184;28;903;-57
2021/11/28 03:21:57;;;;;;;;;;;;;;;13.18;72.01;99287.28;1048625;28;2271;-59
2021/11/28 03:22:47;;;;;;;;;;;;;;;13.19;71.99;99296.16;1048546;28;750;-57
2021/11/28 03:23:38;;;;;;;;;;;;;;;13.18;71.44;99294.47;1048784;28;732;-58
2021/11/28 03:24:28;;;;;;;;;;;;;;;13.18;71.74;99292.63;1049755;28;725;-58
2021/11/28 03:25:19;;;;;;;;;;;;;;;13.18;71.39;99294.47;1049096;28;859;-59
2021/11/28 03:26:09;;;;;;;;;;;;;;;13.17;72.24;99296.28;1049353;28;749;-59
2021/11/28 03:27:00;;;;;;;;;;;;;;;13.17;72.46;99295.47;1049212;28;849;-59
2021/11/28 03:27:50;;;;;;;;;;;;;;;13.17;71.54;99298.97;1049376;28;799;-59
2021/11/28 03:28:40;;;;;;;;;;;;;;;13.17;71.59;99300.81;1049040;28;723;-59
2021/11/28 03:29:31;;;;;;;;;;;;;;;13.19;72.33;99302.34;1048421;28;936;-59
2021/11/28 03:30:21;;;;;;;;;;;;;;;13.18;71.56;99302.50;1049202;28;764;-59
2021/11/28 03:31:12;;;;;;;;;;;;;;;13.17;71.44;99298.97;1049764;28;867;-59
2021/11/28 03:32:02;;;;;;;;;;;;;;;13.17;71.72;99295.47;1048516;28;1968;-59
2021/11/28 03:32:52;;;;;;;;;;;;;;;13.16;72.30;99301.78;1049115;28;697;-59
2021/11/28 03:33:43;;;;;;;;;;;;;;;13.15;72.28;99295.59;1048946;28;1871;-59
2021/11/28 03:34:33;;;;;;;;;;;;;;;13.16;71.60;99288.44;1049406;28;673;-60
2021/11/28 03:35:24;;;;;;;;;;;;;;;13.17;71.51;99295.47;1049124;28;819;-60
2021/11/28 03:36:14;;;;;;;;;;;;;;;13.18;71.94;99294.47;1049055;28;814;-60
2021/11/28 03:37:04;;;;;;;;;;;;;;;13.18;72.41;99289.13;1049224;28;761;-60
2021/11/28 03:37:55;;;;;;;;;;;;;;;13.18;71.47;99291.78;1049189;28;835;-60
2021/11/28 03:38:45;;;;;;;;;;;;;;;13.18;71.55;99294.47;1048835;28;720;-60
2021/11/28 03:39:36;;;;;;;;;;;;;;;13.16;71.71;99296.44;1049172;28;819;-60
2021/11/28 03:40:26;;;;;;;;;;;;;;;13.17;71.68;99303.47;1049339;28;745;-60
2021/11/28 03:41:17;;;;;;;;;;;;;;;13.17;72.10;99298.13;1049206;28;837;-60
2021/11/28 03:42:07;;;;;;;;;;;;;;;13.16;71.47;99301.78;1049321;28;832;-59
2021/11/28 03:42:57;;;;;;;;;;;;;;;13.16;71.66;99302.63;1049131;28;713;-60
2021/11/28 03:43:48;;;;;;;;;;;;;;;13.16;71.61;99301.78;1049113;28;748;-60
2021/11/28 03:44:38;;;;;;;;;;;;;;;13.17;72.32;99303.47;1049289;28;998;-60
2021/11/28 03:45:29;;;;;;;;;;;;;;;13.16;71.51;99301.78;1049250;28;793;-60
2021/11/28 03:46:19;;;;;;;;;;;;;;;13.16;72.49;99308.00;1049162;28;1526;-60
2021/11/28 03:47:10;;;;;;;;;;;;;;;13.17;71.43;99300.81;1049138;28;700;-61
2021/11/28 03:48:00;;;;;;;;;;;;;;;13.15;71.74;99300.94;1049183;28;924;-60
2021/11/28 03:48:50;;;;;;;;;;;;;;;13.16;71.50;99301.78;1049077;28;764;-60
2021/11/28 03:49:41;;;;;;;;;;;;;;;13.16;71.50;99301.78;1049255;28;731;-60
2021/11/28 03:50:31;;;;;;;;;;;;;;;13.16;71.61;99296.44;1049063;28;990;-60
2021/11/28 03:51:22;;;;;;;;;;;;;;;13.16;71.67;99297.28;1048975;28;1794;-60
2021/11/28 03:52:12;;;;;;;;;;;;;;;13.16;72.34;99299.13;1045113;28;964;-60
2021/11/28 03:53:02;;;;;;;;;;;;;;;13.14;71.61;99295.72;1045659;28;759;-60
2021/11/28 03:53:53;;;;;;;;;;;;;;;13.15;71.40;99300.13;1044876;28;725;-60
2021/11/28 03:54:43;;;;;;;;;;;;;;;13.16;72.43;99297.28;1045769;28;1125;-60
2021/11/28 03:55:34;;;;;;;;;;;;;;;13.15;71.62;99294.75;1045659;28;749;-60
2021/11/28 03:56:24;;;;;;;;;;;;;;;13.13;71.61;99291.38;1045729;28;836;-59
2021/11/28 03:57:15;;;;;;;;;;;;;;;13.15;71.86;99297.44;1045231;28;753;-59
2021/11/28 03:58:05;;;;;;;;;;;;;;;13.14;72.47;99293.06;1045841;28;795;-59
2021/11/28 03:58:56;;;;;;;;;;;;;;;13.15;71.97;99289.41;1045775;28;726;-59
2021/11/28 03:59:46;;;;;;;;;;;;;;;13.13;71.68;99292.22;1045575;28;1993;-58
2021/11/28 04:00:36;;;;;;;;;;;;;;;13.14;71.83;99307.25;1045671;28;815;-59
2021/11/28 04:01:27;;;;;;;;;;;;;;;13.12;71.49;99297.72;1046407;28;729;-59
2021/11/28 04:02:17;;;;;;;;;;;;;;;13.14;72.10;99295.72;1046276;28;809;-59
2021/11/28 04:03:08;;;;;;;;;;;;;;;13.13;71.40;99300.22;1046283;28;756;-59
2021/11/28 04:03:58;;;;;;;;;;;;;;;13.14;71.39;99298.41;1045896;28;725;-59
2021/11/28 04:04:48;;;;;;;;;;;;;;;13.14;71.41;99301.06;1041923;28;920;-59
2021/11/28 04:05:39;;;;;;;;;;;;;;;13.13;72.15;99297.56;1042487;28;727;-59
2021/11/28 04:06:29;;;;;;;;;;;;;;;13.13;71.55;99296.72;1046774;28;709;-60
2021/11/28 04:07:20;;;;;;;;;;;;;;;13.12;71.49;99298.56;1045646;28;1205;-60
2021/11/28 04:08:10;;;;;;;;;;;;;;;13.12;72.32;99289.69;1046232;28;771;-60
2021/11/28 04:09:00;;;;;;;;;;;;;;;13.13;71.87;99294.03;1045606;28;938;-60
2021/11/28 04:09:51;;;;;;;;;;;;;;;13.12;71.62;99297.72;1046872;28;1929;-59
2021/11/28 04:10:41;;;;;;;;;;;;;;;13.13;71.88;99292.22;1050015;28;729;-59
2021/11/28 04:11:32;;;;;;;;;;;;;;;13.13;71.94;99296.72;1049904;28;712;-59
2021/11/28 04:12:22;;;;;;;;;;;;;;;13.13;71.92;99291.38;1049932;28;752;-59
2021/11/28 04:13:12;;;;;;;;;;;;;;;13.12;72.14;99301.22;1050436;28;877;-59
2021/11/28 04:14:03;;;;;;;;;;;;;;;13.12;71.93;99295.88;1049955;28;637;-59
2021/11/28 04:14:57;;;;;;;;;;;;;;;13.12;72.11;99295.03;1049642;28;685;-59
2021/11/28 04:15:47;;;;;;;;;;;;;;;13.11;72.15;99299.53;1049919;28;740;-59
2021/11/28 04:16:37;;;;;;;;;;;;;;;13.11;71.34;99301.38;1049785;28;789;-60
2021/11/28 04:17:28;;;;;;;;;;;;;;;13.12;71.67;99300.38;1049698;28;1038;-59
2021/11/28 04:18:18;;;;;;;;;;;;;;;13.11;72.13;99290.69;1049906;28;736;-59
2021/11/28 04:19:09;;;;;;;;;;;;;;;13.12;72.42;99303.06;1049815;28;944;-59
2021/11/28 04:19:59;;;;;;;;;;;;;;;13.10;71.96;99292.50;1045447;28;1786;-59
2021/11/28 04:20:50;;;;;;;;;;;;;;;13.10;72.03;99287.16;1046027;28;983;-59
2021/11/28 04:21:44;;;;;;;;;;;;;;;13.11;71.83;99293.34;1050400;28;853;-59
2021/11/28 04:22:34;;;;;;;;;;;;;;;13.11;71.81;99298.69;1050378;28;813;-59
2021/11/28 04:23:25;;;;;;;;;;;;;;;13.10;72.33;99294.34;1045267;28;708;-59
2021/11/28 04:24:15;;;;;;;;;;;;;;;13.11;71.95;99304.91;1046529;28;814;-59
2021/11/28 04:25:06;;;;;;;;;;;;;;;13.11;72.28;99298.69;1050402;28;741;-59
2021/11/28 04:25:56;;;;;;;;;;;;;;;13.09;71.64;99293.50;1049947;28;842;-59
2021/11/28 04:26:46;;;;;;;;;;;;;;;13.10;71.38;99297.03;1050433;28;744;-59
2021/11/28 04:27:37;;;;;;;;;;;;;;;13.11;71.64;99288.00;1049773;28;726;-59
2021/11/28 04:28:27;;;;;;;;;;;;;;;13.11;71.65;99296.88;1049923;28;733;-60
2021/11/28 04:29:18;;;;;;;;;;;;;;;13.11;71.28;99293.34;1049661;28;1922;-60
2021/11/28 04:30:08;;;;;;;;;;;;;;;13.10;71.51;99295.19;1046277;28;846;-59
2021/11/28 04:30:59;;;;;;;;;;;;;;;13.09;71.97;99300.69;1045653;28;618;-59
2021/11/28 04:31:49;;;;;;;;;;;;;;;13.11;71.81;99301.38;1045080;28;829;-59
2021/11/28 04:32:39;;;;;;;;;;;;;;;13.10;71.57;99305.03;1046178;28;690;-59
2021/11/28 04:33:30;;;;;;;;;;;;;;;13.09;71.59;99301.53;1045646;28;784;-60
2021/11/28 04:34:20;;;;;;;;;;;;;;;13.08;72.16;99297.16;1045685;28;722;-60
2021/11/28 04:35:11;;;;;;;;;;;;;;;13.08;71.58;99304.34;1046227;28;735;-60
2021/11/28 04:36:01;;;;;;;;;;;;;;;13.07;71.72;99298.19;1045669;28;922;-59
2021/11/28 04:36:52;;;;;;;;;;;;;;;13.10;72.30;99297.03;1046326;28;697;-59